sim
Sign-in with your pilot id or email,
or register
Callsign
Passwort

Schedule Details

Flight Number: OEC688
Departure: Cairo International Airport (HECA) at Time
Arrival: Munich Airport (EDDM) at Time
Route: DCT CVO A1 NOZ A727 GESAD L551 ANTAR/N0453F360 UN133 EVIVI L863 OKANA DCT VANAX DCT TIBRO Z427 EKPEB Z468 BRENO UM726 KOGOL KOGO3A

Weather Information
Getting current METAR information for HECA 211130Z 04007KT CAVOK 34/12 Q1010 NOSIG
Getting current METAR information for EDDM 211120Z 06004KT 010V130 CAVOK 21/13 Q1017 NOSIG

Schedule Frequency

Route Map